Southlake's Hourly Summary for Saturday, March 11, 2017
Hour Temp
(f)
RH
(%)
Solar Rad.
(MJ/m2)
Rainfall
(in)
Wind
(mph)
3/11/2017 12:00 AM 62 42 0 0 1.12
3/11/2017 1:00 AM 60 70 0 0 1.28
3/11/2017 2:00 AM 62 49 0 0 2.13
3/11/2017 3:00 AM 61 48 0 0 2.29
3/11/2017 4:00 AM 61 40 0 0 1.51
3/11/2017 5:00 AM 60 30 0 0 1.01
3/11/2017 6:00 AM 60 30 0 0 1
3/11/2017 7:00 AM 62 30 0.06 0 1.68
3/11/2017 8:00 AM 64 50 0.59 0 4.03
3/11/2017 9:00 AM 66 19 0.78 0 4.59
3/11/2017 10:00 AM 69 42 2.03 0 3.86
3/11/2017 11:00 AM 73 89 2.33 0 3.47
3/11/2017 12:00 PM 73 61 1.05 0 2.91
3/11/2017 1:00 PM 73 59 0.41 0 2.52
3/11/2017 2:00 PM 71 65 0.34 0 6.04
3/11/2017 3:00 PM 70 63 0.47 0 6.99
3/11/2017 4:00 PM 67 57 0.32 0 9.51
3/11/2017 5:00 PM 63 58 0.16 0 9.28
3/11/2017 6:00 PM 59 57 0.02 0 10.85
3/11/2017 7:00 PM 55 61 0 0 10.18
3/11/2017 8:00 PM 50 79 0 0 10.01
3/11/2017 9:00 PM 48 85 0 0 9.51
3/11/2017 10:00 PM 48 86 0 0 8
3/11/2017 11:00 PM 48 74 0 0 6.88
Data Summary 61 56 8.56 0.00 5.03